Latest Weather Observations for Kalumburu

IDW60801

Issued at 12:53 pm WST Tuesday 10 December 2019 (issued every 10 minutes, with the page automatically refreshed every 10 minutes)

About weather observations | Map of weather stations | Latest weather observations for WA | Other Formats
Station Details ID: 001019 Name: KALUMBURU Lat: -14.30 Lon: 126.65 Height: 23.0 m
Data from the previous 72 hours. | See also: Recent months at Kalumburu
Date/Time
WST
Temp
°C
App
Temp
°C
Dew
Point
°C
Rel
Hum
%
Delta-T
°C
Wind Press
QNH
hPa
Press
MSL
hPa
Rain since
9am
mm
Dir  Spd
km/h
Gust
km/h
Spd
kts
Gust
kts
10/12:30pm 37.2 37.8 22.1 41 10.4 N 22 32 12 17 1007.5 1007.3 0.0
10/12:00pm 38.2 38.9 20.5 35 12.0 N 17 28 9 15 1007.9 1007.7 0.0
10/11:30am 37.9 40.2 20.7 36 11.7 NE 9 32 5 17 1008.1 1007.9 0.0
10/11:00am 37.1 39.7 22.0 41 10.4 NNW 11 17 6 9 1008.4 1008.2 0.0
10/10:30am 35.1 37.4 22.1 47 8.9 NNW 13 24 7 13 1008.6 1008.4 0.0
10/10:00am 35.9 40.0 23.2 48 8.9 WNW 7 15 4 8 1009.4 1009.2 0.0
10/09:30am 34.0 38.0 23.1 53 7.5 N 7 13 4 7 1010.1 1009.9 0.0
10/09:00am 33.6 37.5 23.0 54 7.3 WNW 7 13 4 7 1010.3 1010.1 0.0
10/08:30am 32.9 36.5 23.0 56 6.8 W 9 13 5 7 1010.3 1010.1 0.0
10/08:00am 33.1 37.1 23.7 57 6.6 WSW 9 13 5 7 1010.1 1009.9 0.0
10/07:30am 32.1 36.2 23.9 62 5.7 WNW 9 15 5 8 1009.9 1009.7 0.0
10/07:00am 31.3 36.2 24.7 68 4.6 WNW 7 11 4 6 1009.7 1009.5 0.0
10/06:30am 30.4 35.0 24.8 72 3.9 WNW 9 13 5 7 1009.5 1009.3 0.0
10/06:00am 28.8 33.6 22.1 67 4.5 CALM 0 0 0 0 1009.2 1009.0 0.0
10/05:30am 26.8 31.3 21.6 73 3.5 CALM 0 0 0 0 1008.8 1008.6 0.0
10/05:00am 26.6 30.8 20.9 71 3.8 CALM 0 0 0 0 1008.5 1008.3 0.0
10/04:30am 26.6 30.7 20.7 70 3.9 CALM 0 0 0 0 1008.3 1008.1 0.0
10/04:00am 27.5 31.5 20.6 66 4.6 CALM 0 0 0 0 1007.9 1007.7 0.0
10/03:30am 28.2 31.2 21.2 65 4.7 S 7 9 4 5 1008.0 1007.8 0.0
10/03:00am 29.0 34.5 24.6 77 3.1 SSW 4 7 2 4 1007.8 1007.6 0.0
10/02:30am 28.7 34.8 24.5 78 2.9 CALM 0 0 0 0 1007.9 1007.7 0.0
10/02:00am 28.6 34.1 24.6 79 2.8 ESE 4 7 2 4 1008.2 1008.0 0.0
10/01:30am 29.0 33.9 24.3 76 3.3 NNW 6 9 3 5 1008.1 1007.9 0.0
10/01:00am 29.2 34.0 24.5 76 3.3 NNW 7 11 4 6 1008.1 1007.9 0.0
10/12:30am 29.3 33.8 24.6 76 3.3 NNW 9 13 5 7 1008.1 1007.9 0.0
10/12:00am 29.2 33.9 24.3 75 3.4 N 7 11 4 6 1008.5 1008.3 0.0
 
Date/Time
WST
Temp
°C
App
Temp
°C
Dew
Point
°C
Rel
Hum
%
Delta-T
°C
Wind Press
QNH
hPa
Press
MSL
hPa
Rain since
9am
mm
Dir  Spd
km/h
Gust
km/h
Spd
kts
Gust
kts
09/11:30pm 29.4 34.2 24.5 75 3.4 N 7 11 4 6 1008.8 1008.6 0.0
09/11:00pm 28.9 34.6 23.8 74 3.5 CALM 0 7 0 4 1009.0 1008.8 0.0
09/10:30pm 29.9 34.6 24.3 72 3.9 NW 7 11 4 6 1009.3 1009.1 0.0
09/10:00pm 29.9 34.6 23.3 67 4.5 NW 4 7 2 4 1009.4 1009.2 0.0
09/09:30pm 30.4 34.7 23.6 67 4.7 NW 7 11 4 6 1009.3 1009.1 0.0
09/09:00pm 30.8 35.0 23.5 65 5.1 WNW 7 11 4 6 1009.3 1009.1 0.0
09/08:30pm 31.1 34.7 23.0 62 5.6 NW 9 15 5 8 1008.7 1008.5 0.0
09/08:00pm 31.6 34.6 22.0 56 6.5 NW 9 17 5 9 1008.7 1008.5 0.0
09/07:30pm 32.3 34.3 19.9 48 8.2 W 9 15 5 8 1009.2 1009.0 0.0
09/07:00pm 32.3 34.9 19.2 46 8.6 WSW 4 11 2 6 1009.0 1008.8 0.0
09/06:30pm 31.6 33.7 18.9 47 8.3 S 6 11 3 6 1008.8 1008.6 0.0
09/06:00pm 31.6 34.3 18.6 46 8.4 WSW 2 9 1 5 1007.7 1007.5 0.0
09/05:30pm 32.3 35.2 23.8 61 5.9 NNW 15 24 8 13 1006.8 1006.6 0.0
09/05:00pm 33.5 35.8 23.5 55 7.0 NNW 17 24 9 13 1006.4 1006.2 0.0
09/04:30pm 33.8 35.0 23.2 54 7.3 N 22 30 12 16 1006.4 1006.2 0.0
09/04:00pm 35.0 36.3 23.3 50 8.2 N 22 32 12 17 1006.3 1006.1 0.0
09/03:30pm 35.3 36.2 23.3 50 8.4 N 24 35 13 19 1006.2 1006.0 0.0
09/03:00pm 35.5 35.7 22.8 47 8.8 N 26 37 14 20 1006.0 1005.8 0.0
09/02:30pm 35.6 36.4 22.5 46 9.0 N 22 41 12 22 1006.5 1006.3 0.0
09/02:00pm 36.5 37.0 22.6 44 9.6 NNW 24 35 13 19 1007.0 1006.8 0.0
09/01:30pm 37.4 37.9 21.9 40 10.7 N 22 32 12 17 1007.4 1007.2 0.0
09/01:00pm 37.5 38.0 21.2 38 11.1 N 20 30 11 16 1007.7 1007.5 0.0
09/12:30pm 37.4 36.6 18.4 32 12.5 NNW 20 30 11 16 1008.1 1007.9 0.0
09/12:00pm 38.0 38.9 21.6 38 11.3 N 19 30 10 16 1008.6 1008.4 0.0
09/11:30am 36.5 37.6 21.9 42 10.0 N 19 30 10 16 1009.0 1008.8 0.0
09/11:00am 36.2 37.5 21.6 42 10.0 N 17 28 9 15 1009.4 1009.2 0.0
09/10:30am 36.0 38.0 22.9 46 9.1 N 17 24 9 13 1009.8 1009.6 0.0
09/10:00am 35.7 38.3 23.3 48 8.6 N 15 24 8 13 1010.1 1009.9 0.0
09/09:30am 34.5 37.2 22.9 51 8.0 NNW 13 20 7 11 1010.5 1010.3 0.0
09/09:00am 34.5 37.2 22.9 51 8.0 N 13 20 7 11 1010.7 1010.5 0.0
09/08:30am 33.8 36.2 22.9 53 7.5 NNW 15 20 8 11 1010.8 1010.6 0.0
09/08:00am 34.1 37.7 23.8 55 7.2 NNW 11 19 6 10 1010.8 1010.6 0.0
09/07:30am 32.9 36.4 23.5 57 6.5 NNW 11 17 6 9 1010.7 1010.5 0.0
09/07:00am 31.0 35.5 24.6 68 4.5 NW 9 15 5 8 1010.6 1010.4 0.0
09/06:30am 30.1 36.0 25.4 76 3.3 W 4 7 2 4 1010.6 1010.4 0.0
09/06:00am 29.5 36.4 25.7 80 2.7 CALM 0 0 0 0 1010.3 1010.1 0.0
09/05:30am 28.5 35.0 25.1 82 2.4 CALM 0 0 0 0 1010.0 1009.8 0.0
09/05:00am 28.6 34.8 24.6 79 2.8 CALM 0 0 0 0 1009.5 1009.3 0.0
09/04:30am 29.2 35.3 25.0 78 2.9 WNW 2 7 1 4 1008.9 1008.7 0.0
09/04:00am 29.4 34.5 24.9 77 3.2 NNW 7 13 4 7 1008.8 1008.6 0.0
09/03:30am 29.5 34.5 24.8 76 3.3 N 7 11 4 6 1008.5 1008.3 0.0
09/03:00am 29.7 34.1 25.0 76 3.3 N 11 15 6 8 1008.2 1008.0 0.0
09/02:30am 29.9 33.9 25.0 75 3.4 NNW 13 20 7 11 1008.2 1008.0 0.0
09/02:00am 30.0 34.7 24.9 74 3.6 NNW 9 15 5 8 1008.6 1008.4 0.0
09/01:30am 30.1 34.5 24.5 72 3.9 N 9 15 5 8 1008.4 1008.2 0.0
09/01:00am 29.7 35.0 25.0 76 3.3 N 6 11 3 6 1008.5 1008.3 0.0
09/12:30am 28.9 35.2 24.7 78 2.9 CALM 0 0 0 0 1008.9 1008.7 0.0
09/12:00am 29.1 35.5 24.9 78 2.9 CALM 0 0 0 0 1009.2 1009.0 0.0
 
Date/Time
WST
Temp
°C
App
Temp
°C
Dew
Point
°C
Rel
Hum
%
Delta-T
°C
Wind Press
QNH
hPa
Press
MSL
hPa
Rain since
9am
mm
Dir  Spd
km/h
Gust
km/h
Spd
kts
Gust
kts
08/11:30pm 29.4 35.5 24.5 75 3.4 CALM 0 0 0 0 1009.7 1009.5 0.0
08/11:00pm 29.9 35.9 24.3 72 3.9 CALM 0 0 0 0 1010.2 1010.0 0.0
08/10:30pm 30.6 35.6 24.5 70 4.3 NW 6 9 3 5 1010.3 1010.1 0.0
08/10:00pm 30.8 35.5 24.9 71 4.2 NNW 9 15 5 8 1010.0 1009.8 0.0
08/09:30pm 30.9 35.1 24.8 70 4.3 NNW 11 17 6 9 1009.7 1009.5 0.0
08/09:00pm 31.0 34.7 24.6 68 4.5 NNW 13 20 7 11 1009.2 1009.0 0.0
08/08:30pm 31.1 34.8 24.5 68 4.6 NNW 13 22 7 12 1008.7 1008.5 0.0
08/08:00pm 31.1 35.5 24.5 68 4.6 NW 9 15 5 8 1008.3 1008.1 0.0
08/07:30pm 31.4 35.5 24.5 67 4.8 NNW 11 17 6 9 1008.3 1008.1 0.0
08/07:00pm 31.7 35.1 24.0 63 5.4 NW 13 19 7 10 1008.3 1008.1 0.0
08/06:30pm 31.7 34.5 21.5 54 6.9 NNW 9 15 5 8 1007.9 1007.7 0.0
08/06:00pm 31.9 33.0 18.1 43 8.9 W 9 17 5 9 1007.7 1007.5 0.0
08/05:30pm 32.0 33.4 19.6 47 8.2 WSW 11 26 6 14 1007.5 1007.3 0.0
08/05:00pm 32.4 35.9 24.2 62 5.7 NW 13 19 7 10 1007.7 1007.5 0.0
08/04:30pm 32.4 35.3 23.9 61 5.9 NNW 15 20 8 11 1007.3 1007.1 0.0
08/04:00pm 32.6 35.6 23.3 58 6.4 NNW 13 20 7 11 1007.9 1007.7 0.0
08/03:30pm 33.0 35.6 23.3 56 6.7 NNE 15 24 8 13 1008.2 1008.0 0.0
08/03:00pm 33.8 35.7 23.8 56 7.0 N 20 32 11 17 1007.3 1007.1 0.0
08/02:30pm 34.0 35.3 24.0 56 7.0 NNW 24 35 13 19 1006.6 1006.4 0.0
08/02:00pm 35.6 36.8 23.9 51 8.2 N 24 35 13 19 1007.0 1006.8 0.0
08/01:30pm 35.5 36.5 23.5 50 8.4 N 24 35 13 19 1007.0 1006.8 0.0
08/01:00pm 35.8 37.3 24.4 51 8.1 N 24 37 13 20 1007.9 1007.7 0.0
08/12:30pm 35.6 36.8 23.9 51 8.2 N 24 35 13 19 1008.4 1008.2 0.0
08/12:00pm 35.7 37.7 24.6 52 7.9 N 22 37 12 20 1008.6 1008.4 0.0
08/11:30am 35.0 36.5 23.7 52 7.9 NNW 22 32 12 17 1008.8 1008.6 0.0
08/11:00am 35.9 38.2 24.5 52 8.1 NNW 20 33 11 18 1009.1 1008.9 0.0
08/10:30am 36.3 39.4 23.5 47 9.0 N 13 20 7 11 1009.2 1009.0 0.0
08/10:00am 35.7 38.9 24.3 51 8.0 N 15 24 8 13 1009.5 1009.3 0.0
08/09:30am 35.2 39.0 23.5 50 8.2 WNW 9 17 5 9 1009.4 1009.2 0.0
08/09:00am 34.9 38.8 24.2 53 7.5 NW 11 19 6 10 1009.9 1009.7 3.0
08/08:30am 33.3 38.1 24.5 60 6.2 NW 7 13 4 7 1009.8 1009.6 3.0
08/08:00am 32.5 37.4 25.3 66 5.1 NW 9 15 5 8 1009.7 1009.5 3.0
08/07:30am 31.2 35.8 24.8 69 4.5 WNW 9 15 5 8 1009.6 1009.4 3.0
08/07:00am 30.7 35.4 25.5 74 3.7 NW 11 17 6 9 1009.7 1009.5 3.0
08/06:30am 29.7 34.7 25.4 78 3.0 NW 9 17 5 9 1009.2 1009.0 3.0
08/06:00am 27.9 34.7 26.1 90 1.3 NNE 2 7 1 4 1009.0 1008.8 3.0
08/05:30am 26.0 31.8 24.0 89 1.4 CALM 0 0 0 0 1008.6 1008.4 3.0
08/05:00am 25.6 31.3 23.7 89 1.3 CALM 0 0 0 0 1008.3 1008.1 2.8
08/04:30am 25.7 31.4 23.7 89 1.4 CALM 0 4 0 2 1008.0 1007.8 2.8
08/04:00am 25.6 31.3 23.7 89 1.3 CALM 0 0 0 0 1007.8 1007.6 2.8
08/03:30am 25.6 31.2 23.5 88 1.4 CALM 0 0 0 0 1007.4 1007.2 2.8
08/03:00am 25.3 30.7 23.2 88 1.4 CALM 0 0 0 0 1007.3 1007.1 2.8
08/02:30am 25.1 30.4 23.0 88 1.4 CALM 0 0 0 0 1007.1 1006.9 2.8
08/02:00am 25.3 30.6 23.0 87 1.6 CALM 0 0 0 0 1007.2 1007.0 2.8
08/01:30am 25.3 30.5 22.8 86 1.7 CALM 0 0 0 0 1007.1 1006.9 2.8
08/01:00am 25.1 30.0 22.4 85 1.8 CALM 0 0 0 0 1007.3 1007.1 2.8
08/12:30am 25.1 29.9 22.2 84 1.9 CALM 0 0 0 0 1007.6 1007.4 2.8
08/12:00am 25.2 30.1 22.3 84 1.9 CALM 0 0 0 0 1008.0 1007.8 2.8
 
Date/Time
WST
Temp
°C
App
Temp
°C
Dew
Point
°C
Rel
Hum
%
Delta-T
°C
Wind Press
QNH
hPa
Press
MSL
hPa
Rain since
9am
mm
Dir  Spd
km/h
Gust
km/h
Spd
kts
Gust
kts
07/11:30pm 25.0 29.6 21.7 82 2.2 CALM 0 0 0 0 1008.3 1008.1 2.8
07/11:00pm 25.0 29.6 21.7 82 2.2 CALM 0 0 0 0 1008.7 1008.5 2.8
07/10:30pm 25.0 29.6 21.7 82 2.2 CALM 0 0 0 0 1009.1 1008.9 2.8
07/10:00pm 25.0 29.6 21.7 82 2.2 CALM 0 0 0 0 1009.1 1008.9 2.8
07/09:30pm 24.8 29.3 21.5 82 2.2 CALM 0 4 0 2 1009.0 1008.8 2.8
07/09:00pm 24.9 29.3 21.4 81 2.3 CALM 0 0 0 0 1008.9 1008.7 2.8
07/08:30pm 25.6 28.9 21.5 78 2.7 WSW 6 9 3 5 1008.8 1008.6 2.8
07/08:00pm 25.9 28.7 20.9 74 3.3 SSW 7 9 4 5 1008.5 1008.3 2.8
07/07:30pm 25.1 28.3 21.2 79 2.6 SE 6 13 3 7 1007.9 1007.7 2.8
07/07:00pm 25.0 24.8 19.4 71 3.6 NW 19 28 10 15 1007.9 1007.7 2.8
07/06:44pm 26.4 26.1 18.3 61 5.1 SW 17 28 9 15 1009.5 1009.3 1.0
07/06:30pm 31.4 30.6 15.0 37 10.1 NNE 13 24 7 13 1009.1 1008.9 0.0
07/06:00pm 32.4 36.8 25.7 68 4.8 NE 13 20 7 11 1008.2 1008.0 0.0
07/05:30pm 32.6 35.5 25.4 66 5.1 N 20 28 11 15 1006.7 1006.5 0.0
07/05:00pm 33.4 36.3 25.4 63 5.7 N 20 30 11 16 1005.9 1005.7 0.0
07/04:30pm 34.8 37.3 25.3 57 6.8 N 22 33 12 18 1005.7 1005.5 0.0
07/04:00pm 35.1 37.8 26.2 60 6.4 N 24 35 13 19 1004.9 1004.7 0.0
07/03:30pm 34.8 37.6 26.4 61 6.1 N 24 41 13 22 1005.1 1004.9 0.0
07/03:00pm 33.9 36.7 26.4 65 5.4 N 24 35 13 19 1005.0 1004.8 0.0
07/02:30pm 34.1 36.5 25.8 62 5.9 N 24 35 13 19 1005.0 1004.8 0.0
07/02:00pm 37.6 39.1 25.0 48 9.0 N 26 39 14 21 1004.9 1004.7 0.0
07/01:30pm 37.7 39.0 24.1 45 9.6 N 24 35 13 19 1005.3 1005.1 0.0
07/01:00pm 39.8 41.2 23.6 39 11.5 N 22 32 12 17 1005.6 1005.4 0.0

Other formats

Comma delimited format used in spreadsheet applications
http://www.bom.gov.au/fwo/IDW60801/IDW60801.94100.axf

JavaScript Object Notation format (JSON) in row-major order
http://www.bom.gov.au/fwo/IDW60801/IDW60801.94100.json

Data quality

Most of these data are generated automatically and are frequently updated. Quality checks on data are not normally performed. It is possible for incorrect values to appear. Refer to information at About Latest Weather Observations and please check the disclaimer before using these data.